createdAt,value
2019-05-15T00:02:19.823Z,33.17
2019-05-15T00:04:53.076Z,33.18
2019-05-15T00:07:23.426Z,33.23
2019-05-15T00:09:53.789Z,33.24
2019-05-15T00:12:28.479Z,33.25
2019-05-15T00:15:01.124Z,33.26
2019-05-15T00:17:31.440Z,33.28
2019-05-15T00:20:02.106Z,33.33
2019-05-15T00:22:32.374Z,33.33
2019-05-15T00:25:08.997Z,33.37
2019-05-15T00:27:39.061Z,33.41
2019-05-15T00:30:13.113Z,33.46
2019-05-15T00:32:43.419Z,33.49
2019-05-15T00:35:14.070Z,33.52
2019-05-15T00:37:44.683Z,33.55
2019-05-15T00:40:15.236Z,33.57
2019-05-15T00:42:48.617Z,33.62
2019-05-15T00:45:18.735Z,33.64
2019-05-15T00:47:49.388Z,33.67
2019-05-15T00:50:20.757Z,33.68
2019-05-15T00:52:52.667Z,33.73
2019-05-15T00:55:23.330Z,33.79
2019-05-15T00:57:54.754Z,33.83
2019-05-15T01:00:40.590Z,33.82
2019-05-15T01:03:12.301Z,33.85
2019-05-15T01:05:43.326Z,33.87
2019-05-15T01:08:13.609Z,33.91
2019-05-15T01:10:43.996Z,33.98
2019-05-15T01:13:14.273Z,33.99
2019-05-15T01:15:44.698Z,33.99
2019-05-15T01:18:15.840Z,34.04
2019-05-15T01:20:46.270Z,34.07
2019-05-15T01:23:18.734Z,34.07
2019-05-15T01:25:49.381Z,34.13
2019-05-15T01:28:38.568Z,34.14
2019-05-15T01:31:08.842Z,34.18
2019-05-15T01:33:39.590Z,34.13
2019-05-15T01:36:11.124Z,34.13
2019-05-15T01:38:42.214Z,34.34
2019-05-15T01:41:13.867Z,34.38
2019-05-15T01:43:44.110Z,34.38
2019-05-15T01:46:14.750Z,34.18
2019-05-15T01:48:45.553Z,34.18
2019-05-15T01:51:18.354Z,34.49
2019-05-15T01:53:48.223Z,34.50
2019-05-15T01:56:18.935Z,34.51
2019-05-15T01:58:49.367Z,34.56
2019-05-15T02:01:19.715Z,34.58
2019-05-15T02:03:50.007Z,34.63
2019-05-15T02:06:20.700Z,34.60
2019-05-15T02:08:51.385Z,34.72
2019-05-15T02:11:22.015Z,34.72
2019-05-15T02:13:53.621Z,34.75
2019-05-15T02:16:23.892Z,34.77
2019-05-15T02:18:58.250Z,34.83
2019-05-15T02:21:29.040Z,34.83
2019-05-15T02:23:59.735Z,34.86
2019-05-15T02:26:30.762Z,34.76
2019-05-15T02:29:01.667Z,34.79
2019-05-15T02:31:32.217Z,34.79
2019-05-15T02:34:02.520Z,34.97
2019-05-15T02:36:32.884Z,35.01
2019-05-15T02:39:04.515Z,35.04
2019-05-15T02:41:34.797Z,35.13
2019-05-15T02:44:05.414Z,35.08
2019-05-15T02:46:39.219Z,35.08
2019-05-15T02:49:09.127Z,35.18
2019-05-15T02:51:40.225Z,35.21
2019-05-15T02:54:10.771Z,35.24
2019-05-15T02:56:41.076Z,35.28
2019-05-15T02:59:11.402Z,35.28
2019-05-15T03:01:42.018Z,35.39
2019-05-15T03:04:12.704Z,35.43
2019-05-15T03:06:42.980Z,35.48
2019-05-15T03:09:13.315Z,35.53
2019-05-15T03:11:43.629Z,35.58
2019-05-15T03:14:13.908Z,35.62
2019-05-15T03:16:45.781Z,35.66
2019-05-15T03:19:18.716Z,35.72
2019-05-15T03:21:49.691Z,35.78
2019-05-15T03:24:20.470Z,35.83
2019-05-15T03:26:52.186Z,35.75
2019-05-15T03:29:22.477Z,35.75
2019-05-15T03:32:13.476Z,35.98
2019-05-15T03:34:30.991Z,36.05
2019-05-15T03:37:03.521Z,36.10
2019-05-15T03:39:31.806Z,36.15
2019-05-15T03:42:02.070Z,36.24
2019-05-15T03:44:32.332Z,36.30
2019-05-15T03:47:02.665Z,36.37
2019-05-15T03:49:32.933Z,36.42
2019-05-15T03:52:10.003Z,36.50
2019-05-15T03:54:40.179Z,36.57
2019-05-15T03:57:10.454Z,36.64
2019-05-15T03:59:40.784Z,36.71
2019-05-15T04:02:11.404Z,36.80
2019-05-15T04:04:41.706Z,36.88
2019-05-15T04:07:14.122Z,36.92
2019-05-15T04:09:44.377Z,37.02
2019-05-15T04:12:14.665Z,37.09
2019-05-15T04:14:45.085Z,37.16
2019-05-15T04:17:19.537Z,37.26
2019-05-15T04:19:49.715Z,37.33
2019-05-15T04:22:21.288Z,37.41
2019-05-15T04:24:52.535Z,37.50
2019-05-15T04:27:24.227Z,37.60
2019-05-15T04:29:54.787Z,37.70
2019-05-15T04:32:28.609Z,37.81
2019-05-15T04:34:59.423Z,37.93
2019-05-15T04:37:30.030Z,38.04
2019-05-15T04:40:00.785Z,38.15
2019-05-15T04:42:31.550Z,38.26
2019-05-15T04:45:01.849Z,38.36
2019-05-15T04:47:35.419Z,38.47
2019-05-15T04:50:08.963Z,38.58
2019-05-15T04:52:42.421Z,38.69
2019-05-15T04:55:10.864Z,38.80
2019-05-15T04:57:41.230Z,38.91
2019-05-15T05:00:13.222Z,39.03
2019-05-15T05:02:43.551Z,39.13
2019-05-15T05:05:14.963Z,39.23
2019-05-15T05:07:45.319Z,39.35
2019-05-15T05:10:19.498Z,39.46
2019-05-15T05:12:50.815Z,39.58
2019-05-15T05:15:23.348Z,39.66
2019-05-15T05:17:54.063Z,39.76
2019-05-15T05:20:25.051Z,39.86
2019-05-15T05:22:55.343Z,39.96
2019-05-15T05:25:27.999Z,40.04
2019-05-15T05:27:58.101Z,40.12
2019-05-15T05:30:29.870Z,40.22
2019-05-15T05:33:00.192Z,40.32
2019-05-15T05:35:30.616Z,40.42
2019-05-15T05:38:00.963Z,40.54
2019-05-15T05:40:31.274Z,40.63
2019-05-15T05:43:01.607Z,40.69
2019-05-15T05:45:32.902Z,40.78
2019-05-15T05:48:03.200Z,40.89
2019-05-15T05:50:44.207Z,40.99
2019-05-15T05:53:13.784Z,41.09
2019-05-15T05:55:44.087Z,41.25
2019-05-15T05:58:14.497Z,41.47
2019-05-15T06:00:48.898Z,41.64
2019-05-15T06:03:19.840Z,41.78
2019-05-15T06:05:52.569Z,41.91
2019-05-15T06:08:22.842Z,42.04
2019-05-15T06:10:53.145Z,42.17
2019-05-15T06:13:25.603Z,42.29
2019-05-15T06:15:55.892Z,42.36
2019-05-15T06:18:28.123Z,42.47
2019-05-15T06:20:58.842Z,42.58
2019-05-15T06:23:35.109Z,42.64
2019-05-15T06:26:01.324Z,42.76
2019-05-15T06:28:33.072Z,42.80
2019-05-15T06:31:08.564Z,42.89
2019-05-15T06:33:38.662Z,42.96
2019-05-15T06:36:09.300Z,43.06
2019-05-15T06:38:39.697Z,43.08
2019-05-15T06:41:10.037Z,43.12
2019-05-15T06:43:40.331Z,43.08
2019-05-15T06:46:12.929Z,43.09
2019-05-15T06:48:45.768Z,43.08
2019-05-15T06:51:18.217Z,43.14
2019-05-15T06:53:50.781Z,43.11
2019-05-15T06:56:21.042Z,43.13
2019-05-15T06:58:51.452Z,43.08
2019-05-15T07:01:21.842Z,43.16
2019-05-15T07:03:52.634Z,43.22
2019-05-15T07:06:22.967Z,43.30
2019-05-15T07:08:53.324Z,43.36
2019-05-15T07:11:23.793Z,43.40
2019-05-15T07:13:54.139Z,43.46
2019-05-15T07:16:24.872Z,43.54
2019-05-15T07:18:58.864Z,43.53
2019-05-15T07:21:31.538Z,43.57
2019-05-15T07:24:01.855Z,43.60
2019-05-15T07:26:31.983Z,43.60
2019-05-15T07:29:07.774Z,43.59
2019-05-15T07:31:38.457Z,43.65
2019-05-15T07:34:09.004Z,43.65
2019-05-15T07:36:39.373Z,43.72
2019-05-15T07:39:09.953Z,43.75
2019-05-15T07:41:40.286Z,43.79
2019-05-15T07:44:10.867Z,43.87
2019-05-15T07:46:43.515Z,43.89
2019-05-15T07:49:13.796Z,44.03
2019-05-15T07:51:48.836Z,44.05
2019-05-15T07:54:18.947Z,44.09
2019-05-15T07:56:49.669Z,44.11
2019-05-15T07:59:20.336Z,44.04
2019-05-15T08:01:50.601Z,43.98
2019-05-15T08:04:28.719Z,43.92
2019-05-15T08:06:59.291Z,43.80
2019-05-15T08:09:30.505Z,43.76
2019-05-15T08:12:05.316Z,43.65
2019-05-15T08:14:38.690Z,43.62
2019-05-15T08:17:09.878Z,43.53
2019-05-15T08:19:40.207Z,43.51
2019-05-15T08:22:11.056Z,43.63
2019-05-15T08:24:41.401Z,43.66
2019-05-15T08:27:15.108Z,43.58
2019-05-15T08:29:45.420Z,43.60
2019-05-15T08:32:15.770Z,43.59
2019-05-15T08:34:48.041Z,43.56
2019-05-15T08:37:18.421Z,43.56
2019-05-15T08:39:49.347Z,43.54
2019-05-15T08:42:20.286Z,43.47
2019-05-15T08:44:50.624Z,43.52
2019-05-15T08:47:21.394Z,43.51
2019-05-15T08:49:57.970Z,43.44
2019-05-15T08:52:30.059Z,43.41
2019-05-15T08:55:00.433Z,43.27
2019-05-15T08:57:30.667Z,43.22
2019-05-15T09:00:02.728Z,43.02
2019-05-15T09:02:33.447Z,43.08
2019-05-15T09:05:04.414Z,42.98
2019-05-15T09:07:34.788Z,42.84
2019-05-15T09:10:09.039Z,42.75
2019-05-15T09:12:40.607Z,42.71
2019-05-15T09:15:19.720Z,42.69
2019-05-15T09:17:50.059Z,42.63
2019-05-15T09:20:20.571Z,42.49
2019-05-15T09:22:53.954Z,42.52
2019-05-15T09:25:24.324Z,42.40
2019-05-15T09:27:54.921Z,42.24
2019-05-15T09:30:25.265Z,42.21
2019-05-15T09:32:58.827Z,42.05
2019-05-15T09:35:29.289Z,41.60
2019-05-15T09:38:00.068Z,41.60
2019-05-15T09:40:45.216Z,41.78
2019-05-15T09:43:03.985Z,41.78
2019-05-15T09:45:34.685Z,41.62
2019-05-15T09:48:05.260Z,41.52
2019-05-15T09:50:35.926Z,41.42
2019-05-15T09:53:09.125Z,41.31
2019-05-15T09:55:39.001Z,41.10
2019-05-15T09:58:09.300Z,41.03
2019-05-15T10:00:40.041Z,41.01
2019-05-15T10:03:10.334Z,40.84
2019-05-15T10:05:42.973Z,40.81
2019-05-15T10:08:13.628Z,40.65
2019-05-15T10:10:44.300Z,40.60
2019-05-15T10:13:21.729Z,40.51
2019-05-15T10:15:53.339Z,40.41
2019-05-15T10:18:31.244Z,40.41
2019-05-15T10:21:04.590Z,40.25
2019-05-15T10:23:40.062Z,40.10
2019-05-15T10:26:13.847Z,40.07
2019-05-15T10:28:42.064Z,39.89
2019-05-15T10:31:15.871Z,39.93
2019-05-15T10:33:49.156Z,39.72
2019-05-15T10:36:24.494Z,39.63
2019-05-15T10:38:59.235Z,39.43
2019-05-15T10:41:29.761Z,39.39
2019-05-15T10:44:13.431Z,39.20
2019-05-15T10:46:48.390Z,39.18
2019-05-15T10:49:19.092Z,39.05
2019-05-15T10:51:50.733Z,38.88
2019-05-15T10:54:22.558Z,38.78
2019-05-15T10:57:00.417Z,38.80
2019-05-15T10:59:28.327Z,38.65
2019-05-15T11:02:00.250Z,38.53
2019-05-15T11:04:31.000Z,38.36
2019-05-15T11:07:02.460Z,38.17
2019-05-15T11:09:37.538Z,38.10
2019-05-15T11:12:09.558Z,38.02
2019-05-15T11:14:40.018Z,37.95
2019-05-15T11:17:10.476Z,37.79
2019-05-15T11:19:41.008Z,37.75
2019-05-15T11:22:19.175Z,37.53
2019-05-15T11:24:54.911Z,37.46
2019-05-15T11:27:27.966Z,37.41
2019-05-15T11:30:00.215Z,37.30
2019-05-15T11:32:30.511Z,37.23
2019-05-15T11:35:04.130Z,37.11
2019-05-15T11:37:34.478Z,37.06
2019-05-15T11:40:05.434Z,36.89
2019-05-15T11:42:36.163Z,36.75
2019-05-15T11:45:15.006Z,36.63
2019-05-15T11:47:45.453Z,36.55
2019-05-15T11:50:20.548Z,36.42
2019-05-15T11:52:50.379Z,36.36
2019-05-15T11:55:21.146Z,36.21
2019-05-15T11:57:55.720Z,36.11
2019-05-15T12:00:30.006Z,35.96
2019-05-15T12:02:59.223Z,35.96
2019-05-15T12:05:29.513Z,35.78
2019-05-15T12:07:59.965Z,35.48
2019-05-15T12:10:30.332Z,35.48
2019-05-15T12:13:05.131Z,35.49
2019-05-15T12:15:35.532Z,35.40
2019-05-15T12:18:08.486Z,35.31
2019-05-15T12:20:48.904Z,35.28
2019-05-15T12:23:19.278Z,35.22
2019-05-15T12:25:53.193Z,35.10
2019-05-15T12:28:24.367Z,35.01
2019-05-15T12:30:54.665Z,34.56
2019-05-15T12:33:24.964Z,34.56
2019-05-15T12:35:55.687Z,34.75
2019-05-15T12:38:29.284Z,34.68
2019-05-15T13:01:25.118Z,33.78
2019-05-15T13:03:57.950Z,33.78
2019-05-15T13:06:28.766Z,33.77
2019-05-15T13:09:02.245Z,33.71
2019-05-15T13:11:32.650Z,33.68
2019-05-15T13:14:02.974Z,33.62
2019-05-15T13:16:34.270Z,33.60
2019-05-15T13:19:08.323Z,33.47
2019-05-15T13:21:40.379Z,33.48
2019-05-15T13:24:10.985Z,33.33
2019-05-15T13:26:42.845Z,33.29
2019-05-15T13:29:13.162Z,33.30
2019-05-15T13:31:43.484Z,33.12
2019-05-15T13:34:19.737Z,33.04
2019-05-15T13:36:49.527Z,32.97
2019-05-15T13:39:20.237Z,32.87
2019-05-15T13:41:53.641Z,32.78
2019-05-15T13:44:24.115Z,32.73
2019-05-15T13:46:58.175Z,32.64
2019-05-15T13:49:29.382Z,32.58
2019-05-15T13:52:02.512Z,32.54
2019-05-15T13:54:37.947Z,32.40
2019-05-15T13:57:10.806Z,32.27
2019-05-15T13:59:41.650Z,32.21
2019-05-15T14:02:11.974Z,32.17
2019-05-15T14:04:42.303Z,32.15
2019-05-15T14:07:15.067Z,32.16
2019-05-15T14:09:59.881Z,32.15
2019-05-15T14:12:29.516Z,32.05
2019-05-15T14:14:59.990Z,32.00
2019-05-15T14:17:32.931Z,31.93
2019-05-15T14:20:03.820Z,31.85
2019-05-15T14:22:35.651Z,31.75
2019-05-15T14:25:08.191Z,31.76
2019-05-15T14:27:39.946Z,31.67
2019-05-15T14:30:23.481Z,31.59
2019-05-15T14:32:54.184Z,31.53
2019-05-15T14:35:24.763Z,31.43
2019-05-15T14:38:03.721Z,31.32
2019-05-15T14:40:29.942Z,31.27
2019-05-15T14:43:03.250Z,31.29
2019-05-15T14:45:34.929Z,31.22
2019-05-15T14:48:05.578Z,31.21
2019-05-15T14:50:41.739Z,31.21
2019-05-15T14:53:14.425Z,31.15
2019-05-15T14:55:44.981Z,31.11
2019-05-15T14:58:15.609Z,31.13
2019-05-15T15:00:49.667Z,31.09
2019-05-15T15:03:24.523Z,30.95
2019-05-15T15:05:58.196Z,30.93
2019-05-15T15:08:29.278Z,30.86
2019-05-15T15:11:00.383Z,30.80
2019-05-15T15:13:31.308Z,30.80
2019-05-15T15:16:02.355Z,30.72
2019-05-15T15:18:34.552Z,30.65
2019-05-15T15:21:04.875Z,30.58
2019-05-15T15:23:38.737Z,30.52
2019-05-15T15:26:09.060Z,30.54
2019-05-15T15:28:40.223Z,30.48
2019-05-15T15:31:18.945Z,30.41
2019-05-15T15:33:51.532Z,30.33
2019-05-15T15:36:21.847Z,30.29
2019-05-15T15:38:52.759Z,30.26
2019-05-15T15:41:23.947Z,30.16
2019-05-15T15:43:54.678Z,30.11
2019-05-15T15:46:25.025Z,30.04
2019-05-15T15:48:55.129Z,30.05
2019-05-15T15:51:28.587Z,30.03
2019-05-15T15:53:59.079Z,29.99
2019-05-15T15:56:29.427Z,29.93
2019-05-15T15:58:59.828Z,29.87
2019-05-15T16:01:31.357Z,29.82
2019-05-15T16:04:03.157Z,29.79
2019-05-15T16:06:33.492Z,29.77
2019-05-15T16:09:08.690Z,29.74
2019-05-15T16:11:39.681Z,29.71
2019-05-15T16:14:11.498Z,29.67
2019-05-15T16:16:41.854Z,29.60
2019-05-15T16:19:12.151Z,29.56
2019-05-15T16:21:42.815Z,29.53
2019-05-15T16:24:17.758Z,29.49
2019-05-15T16:26:49.657Z,29.44
2019-05-15T16:29:20.492Z,29.38
2019-05-15T16:31:53.603Z,29.37
2019-05-15T16:34:28.243Z,29.35
2019-05-15T16:36:58.549Z,29.31
2019-05-15T16:39:31.689Z,29.24
2019-05-15T16:42:06.283Z,29.21
2019-05-15T16:44:38.395Z,29.15
2019-05-15T16:47:08.964Z,29.11
2019-05-15T16:49:39.444Z,29.07
2019-05-15T16:52:10.037Z,29.06
2019-05-15T16:54:40.326Z,29.04
2019-05-15T16:57:15.287Z,28.99
2019-05-15T16:59:47.881Z,28.95
2019-05-15T17:02:18.860Z,28.93
2019-05-15T17:04:49.600Z,28.91
2019-05-15T17:07:20.046Z,28.90
2019-05-15T17:10:00.902Z,28.87
2019-05-15T17:12:31.334Z,28.84
2019-05-15T17:15:01.668Z,28.81
2019-05-15T17:17:33.621Z,28.81
2019-05-15T17:20:04.468Z,28.78
2019-05-15T17:22:34.765Z,28.76
2019-05-15T17:25:09.221Z,28.75
2019-05-15T17:27:40.759Z,28.75
2019-05-15T17:30:11.103Z,28.72
2019-05-15T17:32:41.459Z,28.70
2019-05-15T17:35:12.129Z,28.70
2019-05-15T17:37:44.184Z,28.68
2019-05-15T17:40:14.988Z,28.65
2019-05-15T17:42:45.666Z,28.65
2019-05-15T17:45:16.330Z,28.64
2019-05-15T17:47:48.798Z,28.61
2019-05-15T17:50:22.806Z,28.58
2019-05-15T17:52:53.103Z,28.58
2019-05-15T17:55:23.909Z,28.57
2019-05-15T17:57:58.328Z,28.55
2019-05-15T18:00:28.622Z,28.54
2019-05-15T18:02:59.114Z,28.53
2019-05-15T18:05:31.084Z,28.53
2019-05-15T18:08:01.365Z,28.53
2019-05-15T18:10:31.899Z,28.51
2019-05-15T18:13:04.700Z,28.49
2019-05-15T18:15:35.195Z,28.50
2019-05-15T18:18:09.153Z,28.49
2019-05-15T18:20:40.793Z,28.47
2019-05-15T18:23:11.092Z,28.48
2019-05-15T18:25:41.401Z,28.46
2019-05-15T18:28:11.723Z,28.44
2019-05-15T18:30:41.952Z,28.45
2019-05-15T18:33:12.489Z,28.43
2019-05-15T18:35:44.269Z,28.43
2019-05-15T18:38:14.559Z,28.43
2019-05-15T18:40:44.864Z,28.42
2019-05-15T18:43:15.200Z,28.40
2019-05-15T18:45:47.766Z,28.40
2019-05-15T18:48:18.534Z,28.38
2019-05-15T18:50:49.101Z,28.37
2019-05-15T18:53:21.737Z,28.38
2019-05-15T18:55:53.691Z,28.38
2019-05-15T18:58:24.304Z,28.37
2019-05-15T19:00:54.843Z,28.37
2019-05-15T19:03:38.488Z,28.38
2019-05-15T19:06:09.017Z,28.38
2019-05-15T19:08:42.639Z,28.38
2019-05-15T19:11:13.084Z,28.38
2019-05-15T19:13:48.151Z,28.36
2019-05-15T19:16:18.546Z,28.35
2019-05-15T19:18:49.039Z,28.35
2019-05-15T19:21:19.399Z,28.32
2019-05-15T19:23:49.794Z,28.31
2019-05-15T19:26:19.964Z,28.30
2019-05-15T19:28:50.766Z,28.30
2019-05-15T19:31:26.764Z,28.27
2019-05-15T19:33:53.119Z,28.26
2019-05-15T19:36:23.647Z,28.28
2019-05-15T19:38:54.342Z,28.28
2019-05-15T19:41:24.707Z,28.28
2019-05-15T19:43:58.012Z,28.26
2019-05-15T19:46:28.276Z,28.24
2019-05-15T19:49:03.292Z,28.25
2019-05-15T19:51:38.145Z,28.24
2019-05-15T19:54:09.178Z,28.27
2019-05-15T19:56:43.312Z,28.27
2019-05-15T19:59:13.609Z,28.28
2019-05-15T20:01:45.505Z,28.28
2019-05-15T20:04:16.039Z,28.27
2019-05-15T20:06:48.065Z,28.29
2019-05-15T20:09:18.417Z,28.32
2019-05-15T20:12:00.391Z,28.32
2019-05-15T20:14:30.755Z,28.32
2019-05-15T20:17:01.408Z,28.32
2019-05-15T20:19:31.709Z,28.30
2019-05-15T20:22:02.029Z,28.31
2019-05-15T20:24:33.714Z,28.30
2019-05-15T20:27:04.124Z,28.30
2019-05-15T20:29:34.615Z,28.29
2019-05-15T20:32:06.109Z,28.31
2019-05-15T20:34:38.351Z,28.32
2019-05-15T20:37:09.071Z,28.30
2019-05-15T20:39:39.418Z,28.32
2019-05-15T20:42:10.006Z,28.35
2019-05-15T20:44:40.327Z,28.32
2019-05-15T20:47:12.512Z,28.33
2019-05-15T20:49:43.113Z,28.36
2019-05-15T20:52:18.310Z,28.35
2019-05-15T20:54:48.097Z,28.38
2019-05-15T20:57:20.077Z,28.39
2019-05-15T20:59:50.424Z,28.40
2019-05-15T21:02:21.322Z,28.44
2019-05-15T21:04:52.675Z,28.42
2019-05-15T21:07:35.796Z,28.42
2019-05-15T21:09:56.022Z,28.45
2019-05-15T21:12:29.317Z,28.44
2019-05-15T21:14:58.325Z,28.45
2019-05-15T21:17:28.650Z,28.47
2019-05-15T21:20:01.642Z,28.49
2019-05-15T21:22:33.878Z,28.52
2019-05-15T21:25:08.097Z,28.56
2019-05-15T21:27:42.291Z,28.59
2019-05-15T21:30:11.998Z,28.59
2019-05-15T21:32:42.599Z,28.60
2019-05-15T21:35:12.894Z,28.62
2019-05-15T21:37:43.471Z,28.63
2019-05-15T21:40:14.333Z,28.65
2019-05-15T21:42:44.656Z,28.67
2019-05-15T21:45:18.458Z,28.70
2019-05-15T21:47:48.810Z,28.69
2019-05-15T21:50:19.543Z,28.73
2019-05-15T21:52:51.234Z,28.74
2019-05-15T21:55:21.546Z,28.76
2019-05-15T21:57:52.348Z,28.79
2019-05-15T22:00:31.104Z,28.80
2019-05-15T22:03:01.401Z,28.82
2019-05-15T22:05:31.794Z,28.86
2019-05-15T22:08:03.154Z,28.90
2019-05-15T22:10:34.266Z,28.93
2019-05-15T22:13:05.302Z,28.99
2019-05-15T22:15:35.670Z,28.98
2019-05-15T22:18:08.691Z,28.99
2019-05-15T22:20:40.187Z,29.00
2019-05-15T22:23:10.530Z,29.05
2019-05-15T22:25:43.676Z,29.08
2019-05-15T22:28:14.023Z,29.11
2019-05-15T22:30:44.425Z,29.13
2019-05-15T22:33:14.725Z,29.15
2019-05-15T22:35:48.655Z,29.16
2019-05-15T22:38:18.164Z,29.16
2019-05-15T22:40:49.165Z,29.17
2019-05-15T22:43:20.251Z,29.20
2019-05-15T22:45:50.605Z,29.23
2019-05-15T22:48:20.855Z,29.24
2019-05-15T22:50:51.156Z,29.27
2019-05-15T22:53:21.874Z,29.30
2019-05-15T22:55:53.185Z,29.31
2019-05-15T22:58:23.467Z,29.33
2019-05-15T23:00:53.834Z,29.37
2019-05-15T23:03:28.181Z,29.40
2019-05-15T23:05:58.695Z,29.40
2019-05-15T23:08:29.265Z,29.44
2019-05-15T23:11:00.246Z,29.45
2019-05-15T23:13:30.714Z,29.47
2019-05-15T23:16:01.043Z,29.50
2019-05-15T23:18:32.375Z,29.53
2019-05-15T23:21:02.612Z,29.57
2019-05-15T23:23:33.004Z,29.59
2019-05-15T23:26:07.657Z,29.61
2019-05-15T23:28:38.667Z,29.66
2019-05-15T23:31:09.479Z,29.69
2019-05-15T23:33:39.791Z,29.71
2019-05-15T23:36:13.197Z,29.74
2019-05-15T23:38:47.779Z,29.76
2019-05-15T23:41:19.102Z,29.79
2019-05-15T23:43:50.543Z,29.81
2019-05-15T23:46:21.532Z,29.84
2019-05-15T23:48:51.835Z,29.88
2019-05-15T23:51:22.478Z,29.91
2019-05-15T23:53:52.858Z,29.94
2019-05-15T23:56:23.161Z,29.96
2019-05-15T23:58:53.822Z,29.99
